createdAt,value
2023-02-28T00:01:21.343Z,-27.4
2023-02-28T00:05:25.436Z,-27.3
2023-02-28T00:07:26.729Z,-27.3
2023-02-28T00:09:28.437Z,-27.5
2023-02-28T00:11:30.745Z,-27.3
2023-02-28T00:15:33.755Z,-27.4
2023-02-28T00:17:35.597Z,-27.1
2023-02-28T00:19:37.546Z,-27.1
2023-02-28T00:21:39.128Z,-27.4
2023-02-28T00:27:44.019Z,-27.5
2023-02-28T00:29:45.370Z,-27.2
2023-02-28T00:31:47.402Z,-27.3
2023-02-28T00:33:49.304Z,-27.1
2023-02-28T00:35:50.546Z,-27.2
2023-02-28T00:37:51.888Z,-27.1
2023-02-28T00:39:53.044Z,-27.2
2023-02-28T00:43:56.482Z,-27.2
2023-02-28T00:45:58.145Z,-27.5
2023-02-28T00:48:00.152Z,-27.2
2023-02-28T00:50:01.855Z,-27.1
2023-02-28T00:52:03.145Z,-27.3
2023-02-28T00:54:04.900Z,-27.3
2023-02-28T00:56:06.534Z,-27.4
2023-02-28T00:58:08.066Z,-27.6
2023-02-28T01:00:09.442Z,-27.4
2023-02-28T01:02:11.322Z,-27.4
2023-02-28T01:04:12.605Z,-27.2
2023-02-28T01:06:14.448Z,-27.1
2023-02-28T01:08:16.309Z,-27.2
2023-02-28T01:10:17.857Z,-27.2
2023-02-28T01:12:19.577Z,-27.2
2023-02-28T01:14:21.206Z,-27.1
2023-02-28T01:16:22.970Z,-27.2
2023-02-28T01:18:24.243Z,-27.3
2023-02-28T01:20:26.037Z,-27.3
2023-02-28T01:22:27.621Z,-27.3
2023-02-28T01:26:30.197Z,-27.3
2023-02-28T01:28:32.231Z,-27.2
2023-02-28T01:30:33.848Z,-27.2
2023-02-28T01:32:35.727Z,-27.6
2023-02-28T01:34:37.495Z,-27
2023-02-28T01:36:39.468Z,-27.5
2023-02-28T01:40:42.745Z,-27.2
2023-02-28T01:42:44.599Z,-27.3
2023-02-28T01:44:46.392Z,-27.2
2023-02-28T01:46:47.517Z,-27.4
2023-02-28T01:48:49.042Z,-27.2
2023-02-28T01:50:50.204Z,-27.3
2023-02-28T01:52:51.941Z,-27.4
2023-02-28T01:54:53.934Z,-27
2023-02-28T01:56:55.868Z,-27.3
2023-02-28T01:58:57.247Z,-27.2
2023-02-28T02:00:59.208Z,-27.3
2023-02-28T02:03:01.055Z,-27.1
2023-02-28T02:05:02.468Z,-27.1
2023-02-28T02:09:06.076Z,-27.1
2023-02-28T02:11:08.081Z,-27.3
2023-02-28T02:13:09.250Z,-27.1
2023-02-28T02:15:10.677Z,-27.2
2023-02-28T02:17:12.686Z,-27.1
2023-02-28T02:19:14.591Z,-27.1
2023-02-28T02:21:16.428Z,-27.2
2023-02-28T02:23:17.897Z,-27.3
2023-02-28T02:25:19.004Z,-27.1
2023-02-28T02:27:20.889Z,-27.2
2023-02-28T02:29:22.230Z,-27
2023-02-28T02:31:23.571Z,-27.1
2023-02-28T02:33:24.986Z,-27.2
2023-02-28T02:35:26.287Z,-27.2
2023-02-28T02:37:27.569Z,-27.4
2023-02-28T02:39:29.320Z,-27.1
2023-02-28T02:41:30.908Z,-27.4
2023-02-28T02:45:34.148Z,-27.4
2023-02-28T02:47:35.399Z,-27.3
2023-02-28T02:49:37.099Z,-27.2
2023-02-28T02:51:39.164Z,-26.9
2023-02-28T02:53:40.382Z,-27
2023-02-28T02:55:42.481Z,-27.2
2023-02-28T02:57:44.484Z,-27.4
2023-02-28T02:59:46.001Z,-27.4
2023-02-28T03:01:47.147Z,-27.4
2023-02-28T03:07:52.756Z,-27.3
2023-02-28T03:09:54.766Z,-26.9
2023-02-28T03:11:56.463Z,-27.2
2023-02-28T03:15:59.951Z,-27.1
2023-02-28T03:18:01.021Z,-27
2023-02-28T03:20:02.207Z,-27.3
2023-02-28T03:22:03.385Z,-27.3
2023-02-28T03:24:05.319Z,-27.1
2023-02-28T03:28:08.227Z,-27.3
2023-02-28T03:30:09.554Z,-27.3
2023-02-28T03:32:10.994Z,-27.2
2023-02-28T03:34:12.860Z,-27.3
2023-02-28T03:38:15.463Z,-27.4
2023-02-28T03:40:17.505Z,-27.3
2023-02-28T03:42:19.513Z,-27.3
2023-02-28T03:44:21.509Z,-27.2
2023-02-28T03:45:05.480Z,-27.4
2023-02-28T03:49:08.704Z,-27.2
2023-02-28T03:51:10.779Z,-27.4
2023-02-28T03:53:12.329Z,-26.9
2023-02-28T03:55:13.547Z,-27.2
2023-02-28T03:59:16.133Z,-27.4
2023-02-28T04:01:17.814Z,-27.3
2023-02-28T04:03:19.668Z,-27.1
2023-02-28T04:05:21.138Z,-27.1
2023-02-28T04:09:24.038Z,-27.1
2023-02-28T04:11:25.167Z,-27.1
2023-02-28T04:13:26.543Z,-26.9
2023-02-28T04:15:27.914Z,-27.2
2023-02-28T04:17:29.602Z,-27.1
2023-02-28T04:19:31.360Z,-27.4
2023-02-28T04:21:33.596Z,-27
2023-02-28T04:25:36.630Z,-27.4
2023-02-28T04:27:38.124Z,-27.1
2023-02-28T04:29:40.141Z,-27.2
2023-02-28T04:31:41.607Z,-27.2
2023-02-28T04:35:44.133Z,-27.2
2023-02-28T04:37:45.404Z,-27.3
2023-02-28T04:39:46.856Z,-27.1
2023-02-28T04:41:48.630Z,-27.3
2023-02-28T04:43:50.464Z,-27.3
2023-02-28T04:45:52.274Z,-27.3
2023-02-28T04:47:53.617Z,-27.1
2023-02-28T04:53:58.411Z,-27.2
2023-02-28T04:55:59.814Z,-27.4
2023-02-28T04:58:01.487Z,-27.1
2023-02-28T05:00:03.352Z,-27.3
2023-02-28T05:02:05.133Z,-27.3
2023-02-28T05:04:07.141Z,-27.1
2023-02-28T05:08:10.271Z,-27.2
2023-02-28T05:10:12.221Z,-27.1
2023-02-28T05:12:14.221Z,-27.1
2023-02-28T05:14:16.208Z,-27.2
2023-02-28T05:18:18.927Z,-27.1
2023-02-28T05:20:20.537Z,-27.3
2023-02-28T05:22:22.194Z,-27.5
2023-02-28T05:24:23.979Z,-27.5
2023-02-28T05:26:25.207Z,-27.1
2023-02-28T05:28:27.040Z,-26.9
2023-02-28T05:30:28.409Z,-27.1
2023-02-28T05:36:34.039Z,-27.4
2023-02-28T05:38:36.844Z,-27.1
2023-02-28T05:40:36.888Z,-27.4
2023-02-28T05:42:38.442Z,-27.1
2023-02-28T05:44:39.659Z,-27.3
2023-02-28T05:46:40.966Z,-27.1
2023-02-28T05:48:42.503Z,-27.4
2023-02-28T05:50:44.579Z,-27.1
2023-02-28T05:52:46.687Z,-27.1
2023-02-28T05:54:47.832Z,-27.2
2023-02-28T05:56:49.897Z,-27.4
2023-02-28T05:58:51.351Z,-27.4
2023-02-28T06:00:53.247Z,-27.2
2023-02-28T06:02:54.817Z,-27.1
2023-02-28T06:04:56.628Z,-27.1
2023-02-28T06:06:58.425Z,-27.1
2023-02-28T06:08:59.627Z,-27.3
2023-02-28T06:11:01.148Z,-27.6
2023-02-28T06:13:02.709Z,-27.1
2023-02-28T06:19:07.654Z,-27.1
2023-02-28T06:23:10.578Z,-27.6
2023-02-28T06:25:12.286Z,-27.3
2023-02-28T06:27:13.571Z,-27
2023-02-28T06:29:15.449Z,-27.3
2023-02-28T06:33:18.860Z,-27.2
2023-02-28T06:35:20.549Z,-27
2023-02-28T06:37:21.716Z,-27.4
2023-02-28T06:39:23.413Z,-27.2
2023-02-28T06:41:25.073Z,-27.2
2023-02-28T06:43:26.475Z,-27.3
2023-02-28T06:45:27.583Z,-27.2
2023-02-28T06:47:28.766Z,-27.2
2023-02-28T06:49:30.612Z,-27.1
2023-02-28T06:51:32.141Z,-27.2
2023-02-28T06:53:34.087Z,-27.3
2023-02-28T06:55:35.658Z,-26.9
2023-02-28T06:57:37.702Z,-27.3
2023-02-28T06:59:39.046Z,-27.2
2023-02-28T07:01:40.419Z,-27.5
2023-02-28T07:05:43.448Z,-27.4
2023-02-28T07:07:44.606Z,-27.4
2023-02-28T07:09:45.863Z,-27.3
2023-02-28T07:11:47.868Z,-27.4
2023-02-28T07:17:52.734Z,4
2023-02-28T07:19:54.019Z,8.8
2023-02-28T07:21:55.856Z,-19.2
2023-02-28T07:23:56.950Z,-12.8
2023-02-28T07:25:58.239Z,21.5
2023-02-28T07:27:59.547Z,33.59
2023-02-28T07:30:00.768Z,82.4
2023-02-28T07:32:02.243Z,82.6
2023-02-28T07:34:03.725Z,82.4
2023-02-28T07:36:04.926Z,82.4
2023-02-28T07:38:06.448Z,82.1
2023-02-28T07:40:08.252Z,82.1
2023-02-28T07:42:10.033Z,20.29
2023-02-28T07:44:11.642Z,25.6
2023-02-28T07:46:13.036Z,48.9
2023-02-28T07:48:14.309Z,67.4
2023-02-28T07:50:16.228Z,68.1
2023-02-28T07:54:19.850Z,58.7
2023-02-28T07:56:21.001Z,60.3
2023-02-28T07:58:22.564Z,65.5
2023-02-28T08:00:23.722Z,72
2023-02-28T08:04:27.199Z,42.9
2023-02-28T08:06:28.278Z,78.6
2023-02-28T08:08:29.524Z,78.5
2023-02-28T08:10:31.333Z,77.5
2023-02-28T08:16:35.224Z,76.4
2023-02-28T08:18:37.070Z,75.19
2023-02-28T08:20:38.304Z,51.4
2023-02-28T08:22:39.387Z,74.1
2023-02-28T08:24:41.326Z,73.69
2023-02-28T08:26:43.253Z,49.9
2023-02-28T08:28:45.153Z,72.3
2023-02-28T08:30:46.261Z,71.3
2023-02-28T08:32:47.912Z,70.8
2023-02-28T08:36:51.440Z,69
2023-02-28T08:38:52.489Z,68.3
2023-02-28T08:40:53.508Z,67.69
2023-02-28T08:42:55.144Z,66.69
2023-02-28T08:46:57.536Z,63.8
2023-02-28T08:48:58.942Z,62.9
2023-02-28T08:51:07.037Z,61.8
2023-02-28T08:53:01.284Z,60.5
2023-02-28T08:57:04.699Z,57.6
2023-02-28T08:59:05.906Z,56.7
2023-02-28T09:01:07.102Z,54.8
2023-02-28T09:03:08.944Z,53.8
2023-02-28T09:07:11.360Z,51.3
2023-02-28T09:09:13.030Z,49
2023-02-28T09:13:15.526Z,46.7
2023-02-28T09:15:16.996Z,45.1
2023-02-28T09:17:18.644Z,43.6
2023-02-28T09:19:19.743Z,42.6
2023-02-28T09:25:24.224Z,38.59
2023-02-28T09:27:25.798Z,38.3
2023-02-28T09:29:26.919Z,36
2023-02-28T09:31:27.924Z,35.7
2023-02-28T09:33:29.436Z,33.5
2023-02-28T09:35:31.422Z,33.09
2023-02-28T09:37:33.245Z,32
2023-02-28T09:39:34.455Z,30.8
2023-02-28T09:41:35.992Z,28.6
2023-02-28T09:43:37.388Z,27.6
2023-02-28T09:45:38.799Z,27.1
2023-02-28T09:47:40.452Z,26.1
2023-02-28T09:49:41.747Z,26.2
2023-02-28T09:51:42.923Z,24.9
2023-02-28T09:53:47.828Z,23.4
2023-02-28T09:55:47.202Z,23.4
2023-02-28T09:57:47.458Z,22.5
2023-02-28T09:59:49.318Z,21
2023-02-28T10:01:51.412Z,19.6
2023-02-28T10:03:52.445Z,19.4
2023-02-28T10:07:55.027Z,16.7
2023-02-28T10:11:58.510Z,15.4
2023-02-28T10:13:58.481Z,13.3
2023-02-28T10:15:59.755Z,13.6
2023-02-28T10:18:08.726Z,12.5
2023-02-28T10:24:06.273Z,11.9
2023-02-28T10:26:07.551Z,10.7
2023-02-28T10:28:09.198Z,9.2
2023-02-28T10:30:10.243Z,9.5
2023-02-28T10:30:54.096Z,11.1
2023-02-28T10:34:57.199Z,-27.3
2023-02-28T10:36:58.615Z,-27.4
2023-02-28T10:39:00.232Z,-27.3
2023-02-28T10:41:01.375Z,-27.4
2023-02-28T10:43:02.718Z,-27.6
2023-02-28T10:45:04.623Z,-27.2
2023-02-28T10:47:06.266Z,-27.4
2023-02-28T10:49:07.612Z,-27.5
2023-02-28T10:51:09.521Z,-27.2
2023-02-28T10:53:10.825Z,-27.4
2023-02-28T10:55:12.807Z,-27.5
2023-02-28T10:57:14.541Z,-27.6
2023-02-28T10:59:15.963Z,-27.6
2023-02-28T11:01:17.858Z,-27.1
2023-02-28T11:03:19.628Z,-27.4
2023-02-28T11:05:20.935Z,-27.3
2023-02-28T11:07:22.951Z,-27.7
2023-02-28T11:09:23.466Z,-27.4
2023-02-28T11:11:25.125Z,-27.6
2023-02-28T11:15:28.818Z,-27.6
2023-02-28T11:17:30.295Z,-27.3
2023-02-28T11:19:31.452Z,-27.6
2023-02-28T11:21:32.742Z,-27.1
2023-02-28T11:23:33.728Z,-27.2
2023-02-28T11:25:35.224Z,-27.1
2023-02-28T11:27:36.192Z,-27.9
2023-02-28T11:31:39.105Z,-27.5
2023-02-28T11:33:40.644Z,-27.6
2023-02-28T11:37:43.542Z,-27.4
2023-02-28T11:41:46.694Z,-27.4
2023-02-28T11:43:48.179Z,-27.5
2023-02-28T11:47:50.737Z,-27.5
2023-02-28T11:49:52.488Z,-27.5
2023-02-28T11:51:53.706Z,-27.3
2023-02-28T11:53:54.707Z,-27.5
2023-02-28T11:57:58.120Z,-27.2
2023-02-28T11:59:59.163Z,-27.4
2023-02-28T12:02:00.512Z,-27.4
2023-02-28T12:04:02.247Z,-27.4
2023-02-28T12:06:03.700Z,-27.4
2023-02-28T12:08:05.499Z,45.7
2023-02-28T12:10:06.804Z,40.7
2023-02-28T12:14:10.082Z,38.59
2023-02-28T12:16:11.886Z,36.7
2023-02-28T12:18:13.129Z,34.5
2023-02-28T12:20:14.623Z,31.7
2023-02-28T12:26:19.411Z,27.4
2023-02-28T12:28:21.243Z,26.5
2023-02-28T12:30:22.958Z,23.4
2023-02-28T12:32:24.516Z,22.2
2023-02-28T12:34:26.195Z,20.8
2023-02-28T12:36:27.686Z,20.29
2023-02-28T12:40:30.872Z,19.79
2023-02-28T12:42:31.873Z,14.2
2023-02-28T12:44:33.540Z,13.9
2023-02-28T12:46:34.700Z,13.9
2023-02-28T12:50:37.534Z,13.4
2023-02-28T12:52:38.959Z,10.8
2023-02-28T12:56:42.531Z,9.7
2023-02-28T12:58:44.163Z,9
2023-02-28T13:00:45.374Z,8.5
2023-02-28T13:02:46.325Z,7.4
2023-02-28T13:08:51.157Z,-27.5
2023-02-28T13:10:52.900Z,-27.1
2023-02-28T13:12:54.062Z,-27.3
2023-02-28T13:14:55.290Z,-27.3
2023-02-28T13:16:57.090Z,-27.5
2023-02-28T13:18:58.578Z,-27.6
2023-02-28T13:23:01.521Z,-27.5
2023-02-28T13:25:02.773Z,-27.7
2023-02-28T13:27:04.342Z,-27.3
2023-02-28T13:29:05.800Z,-27.4
2023-02-28T13:31:07.509Z,-27.3
2023-02-28T13:33:09.190Z,-27.6
2023-02-28T13:35:10.844Z,-27.2
2023-02-28T13:37:12.165Z,-27.6
2023-02-28T13:39:13.927Z,-27.3
2023-02-28T13:41:15.314Z,-27.4
2023-02-28T13:43:16.652Z,-27.3
2023-02-28T13:45:17.837Z,-27.3
2023-02-28T13:47:19.131Z,-27.4
2023-02-28T13:51:22.194Z,-27.5
2023-02-28T13:55:25.449Z,-27.1
2023-02-28T13:57:27.324Z,-27.4
2023-02-28T13:59:28.490Z,-27.4
2023-02-28T14:01:30.137Z,-27.6
2023-02-28T14:03:31.596Z,-27.5
2023-02-28T14:05:33.153Z,-27.3
2023-02-28T14:07:36.138Z,-27.2
2023-02-28T14:09:36.149Z,-27.3
2023-02-28T14:11:37.714Z,-27.3
2023-02-28T14:13:39.573Z,-27.5
2023-02-28T14:15:41.417Z,-27.4
2023-02-28T14:17:42.950Z,-27.4
2023-02-28T14:19:44.454Z,-27.4
2023-02-28T14:21:46.030Z,-27.6
2023-02-28T14:23:47.099Z,-27.5
2023-02-28T14:25:48.414Z,-27.4
2023-02-28T14:27:49.515Z,-27.4
2023-02-28T14:29:51.004Z,-27.5
2023-02-28T14:33:54.794Z,-27.2
2023-02-28T14:35:56.444Z,-27.4
2023-02-28T14:37:58.067Z,-27.5
2023-02-28T14:39:59.675Z,-27.5
2023-02-28T14:42:00.691Z,-27.6
2023-02-28T14:44:01.746Z,-27.4
2023-02-28T14:48:04.406Z,-27.4
2023-02-28T14:50:05.405Z,-27.4
2023-02-28T14:52:06.644Z,-27.4
2023-02-28T14:54:07.694Z,-27.4
2023-02-28T14:56:08.837Z,-27.4
2023-02-28T14:58:10.325Z,-27.5
2023-02-28T15:00:11.291Z,-27.5
2023-02-28T15:02:12.912Z,-27.4
2023-02-28T15:04:14.783Z,46.7
2023-02-28T15:06:16.552Z,43.8
2023-02-28T15:08:18.444Z,42.1
2023-02-28T15:10:19.798Z,39.2
2023-02-28T15:12:20.904Z,36.9
2023-02-28T15:14:22.585Z,34.9
2023-02-28T15:16:23.896Z,32.9
2023-02-28T15:18:25.656Z,32.09
2023-02-28T15:20:26.812Z,28.9
2023-02-28T15:22:28.410Z,28.8
2023-02-28T15:24:29.538Z,26.7
2023-02-28T15:26:32.189Z,25.6
2023-02-28T15:28:32.992Z,24.7
2023-02-28T15:30:34.931Z,22.5
2023-02-28T15:32:36.208Z,22.3
2023-02-28T15:34:42.843Z,21.3
2023-02-28T15:36:39.276Z,19.2
2023-02-28T15:38:40.758Z,16.79
2023-02-28T15:40:41.941Z,15.7
2023-02-28T15:42:43.382Z,16.2
2023-02-28T15:48:47.556Z,12.9
2023-02-28T15:50:48.528Z,12.4
2023-02-28T15:52:49.561Z,10
2023-02-28T15:54:51.309Z,10.6
2023-02-28T15:56:52.747Z,-27.5
2023-02-28T15:58:54.220Z,-27.4
2023-02-28T16:02:56.771Z,-27.2
2023-02-28T16:04:58.319Z,-27.6
2023-02-28T16:06:59.625Z,-27.3
2023-02-28T16:09:01.082Z,-27.4
2023-02-28T16:13:04.354Z,-27.5
2023-02-28T16:15:05.997Z,-27.4
2023-02-28T16:19:09.079Z,-27.3
2023-02-28T16:21:10.134Z,-27.4
2023-02-28T16:23:11.303Z,-27.5
2023-02-28T16:25:12.793Z,-27.5
2023-02-28T16:29:15.497Z,-27.5
2023-02-28T16:31:17.025Z,-27.3
2023-02-28T16:33:18.942Z,-27.4
2023-02-28T16:35:20.816Z,-27.2
2023-02-28T16:39:23.103Z,-27.7
2023-02-28T16:41:24.696Z,-27.4
2023-02-28T16:45:27.918Z,-27.3
2023-02-28T16:47:29.702Z,-27.7
2023-02-28T16:49:30.842Z,-27.5
2023-02-28T16:51:35.107Z,-27.5
2023-02-28T16:57:36.697Z,-27.5
2023-02-28T16:59:38.093Z,-27.1
2023-02-28T17:01:39.387Z,-27.5
2023-02-28T17:03:40.784Z,-27.3
2023-02-28T17:05:42.018Z,-27.6
2023-02-28T17:07:43.658Z,-27.4
2023-02-28T17:09:45.673Z,-27.6
2023-02-28T17:11:46.852Z,-27.3
2023-02-28T17:13:48.656Z,-27.4
2023-02-28T17:15:50.700Z,-27.1
2023-02-28T17:18:36.494Z,-27.6
2023-02-28T17:20:37.674Z,-27.4
2023-02-28T17:22:39.127Z,-27.5
2023-02-28T17:24:41.010Z,-27.5
2023-02-28T17:26:42.158Z,-27.3
2023-02-28T17:28:43.724Z,-27.4
2023-02-28T17:30:45.252Z,-27.4
2023-02-28T17:32:54.486Z,-27.6
2023-02-28T17:34:47.887Z,-27.3
2023-02-28T17:38:51.351Z,-27.5
2023-02-28T17:40:53.259Z,-27.8
2023-02-28T17:42:54.397Z,-27.6
2023-02-28T17:44:56.082Z,-27.3
2023-02-28T17:51:00.159Z,-27.5
2023-02-28T17:53:01.752Z,-27.8
2023-02-28T17:55:03.286Z,-27.5
2023-02-28T17:57:05.263Z,-27.3
2023-02-28T17:59:06.597Z,-27.7
2023-02-28T18:01:08.067Z,-27.5
2023-02-28T18:03:09.612Z,-27.5
2023-02-28T18:05:10.632Z,-27.4
2023-02-28T18:07:12.371Z,-27.4
2023-02-28T18:09:14.021Z,-27.6
2023-02-28T18:11:15.489Z,-27.4
2023-02-28T18:13:17.277Z,-27.3
2023-02-28T18:15:18.474Z,-27.5
2023-02-28T18:17:20.330Z,-27.5
2023-02-28T18:21:22.789Z,-27.4
2023-02-28T18:23:24.572Z,-27.4
2023-02-28T18:25:26.284Z,-27.4
2023-02-28T18:27:27.354Z,-27.4
2023-02-28T18:29:28.889Z,-27.5
2023-02-28T18:31:30.049Z,-27.5
2023-02-28T18:33:31.521Z,-27.5
2023-02-28T18:35:32.596Z,-27.6
2023-02-28T18:37:34.482Z,-27.3
2023-02-28T18:39:36.376Z,-27.5
2023-02-28T18:41:38.237Z,-27.4
2023-02-28T18:43:39.375Z,-27.4
2023-02-28T18:45:40.650Z,-27.4
2023-02-28T18:47:42.250Z,-27.6
2023-02-28T18:49:43.354Z,-27.6
2023-02-28T18:51:45.151Z,-27.4
2023-02-28T18:53:46.994Z,-27.4
2023-02-28T18:55:48.830Z,-27.5
2023-02-28T18:57:50.202Z,-27.5
2023-02-28T18:59:52.011Z,-27.3
2023-02-28T19:05:57.537Z,-27.6
2023-02-28T19:07:59.412Z,-27.5
2023-02-28T19:10:01.205Z,-27.6
2023-02-28T19:12:03.222Z,-27.6
2023-02-28T19:14:04.281Z,-27.4
2023-02-28T19:16:06.273Z,-27.4
2023-02-28T19:18:07.484Z,-27.7
2023-02-28T19:20:08.804Z,-27.5
2023-02-28T19:22:10.536Z,-27.5
2023-02-28T19:24:11.819Z,-27.7
2023-02-28T19:26:13.616Z,-27.5
2023-02-28T19:28:15.063Z,-27.5
2023-02-28T19:30:17.048Z,-27.5
2023-02-28T19:32:18.790Z,-27.6
2023-02-28T19:36:20.940Z,-27.8
2023-02-28T19:38:22.154Z,-27.5
2023-02-28T19:40:23.643Z,-27.6
2023-02-28T19:42:25.672Z,-27.5
2023-02-28T19:48:30.473Z,-27.6
2023-02-28T19:50:32.436Z,-27.9
2023-02-28T19:52:34.502Z,-27.5
2023-02-28T19:54:35.669Z,-27.7
2023-02-28T19:56:37.210Z,-27.3
2023-02-28T19:58:38.866Z,-27.6
2023-02-28T20:00:40.780Z,-27.6
2023-02-28T20:02:42.447Z,-27.5
2023-02-28T20:04:44.365Z,-27.8
2023-02-28T20:06:45.465Z,-27.8
2023-02-28T20:08:47.445Z,-27.4
2023-02-28T20:10:49.163Z,-27.9
2023-02-28T20:12:51.174Z,-27.9
2023-02-28T20:14:52.952Z,-27.9
2023-02-28T20:18:56.581Z,-27.7
2023-02-28T20:20:58.665Z,-27.6
2023-02-28T20:23:00.010Z,-27.9
2023-02-28T20:25:01.627Z,-27.5
2023-02-28T20:29:04.894Z,-27.7
2023-02-28T20:31:06.415Z,-27.7
2023-02-28T20:33:07.677Z,-27.9
2023-02-28T20:35:09.155Z,-27.9
2023-02-28T20:37:10.753Z,-27.9
2023-02-28T20:39:12.677Z,-27.6
2023-02-28T20:41:14.703Z,-27.9
2023-02-28T20:43:16.156Z,-28.1
2023-02-28T20:45:17.981Z,-28
2023-02-28T20:47:19.997Z,-27.7
2023-02-28T20:49:21.287Z,-27.7
2023-02-28T20:51:22.838Z,-27.8
2023-02-28T20:53:24.395Z,-27.7
2023-02-28T20:55:26.217Z,-27.5
2023-02-28T20:57:28.110Z,-27.8
2023-02-28T21:01:31.071Z,-28
2023-02-28T21:03:32.444Z,-27.6
2023-02-28T21:05:34.254Z,-27.5
2023-02-28T21:07:36.017Z,-27.8
2023-02-28T21:13:41.052Z,-27.6
2023-02-28T21:15:42.384Z,-27.7
2023-02-28T21:17:43.563Z,-27.5
2023-02-28T21:19:44.951Z,-27.8
2023-02-28T21:21:46.792Z,-27.6
2023-02-28T21:23:48.435Z,-27.8
2023-02-28T21:25:49.549Z,-27.6
2023-02-28T21:27:51.493Z,-27.7
2023-02-28T21:29:53.355Z,-27.6
2023-02-28T21:31:54.947Z,-27.7
2023-02-28T21:33:56.229Z,-27.5
2023-02-28T21:35:58.048Z,-27.6
2023-02-28T21:37:59.922Z,-27.4
2023-02-28T21:40:01.349Z,-27.4
2023-02-28T21:42:02.637Z,-27.7
2023-02-28T21:44:03.944Z,-27.4
2023-02-28T21:46:05.116Z,-27.6
2023-02-28T21:48:06.300Z,-27.4
2023-02-28T21:50:07.374Z,-27.7
2023-02-28T21:52:08.848Z,-27.7
2023-02-28T21:54:10.052Z,-27.4
2023-02-28T21:56:11.595Z,-27.4
2023-02-28T21:58:13.102Z,-27.6
2023-02-28T22:00:15.084Z,-27.6
2023-02-28T22:02:16.206Z,-27.5
2023-02-28T22:04:17.859Z,-27.6
2023-02-28T22:06:19.880Z,-27.6
2023-02-28T22:12:24.499Z,-27.2
2023-02-28T22:14:26.044Z,-27.2
2023-02-28T22:16:29.442Z,-27.5
2023-02-28T22:18:29.633Z,-27.6
2023-02-28T22:20:31.089Z,-27.4
2023-02-28T22:22:32.579Z,-27.5
2023-02-28T22:26:35.074Z,-27.3
2023-02-28T22:28:36.214Z,-27.6
2023-02-28T22:30:37.467Z,-27.4
2023-02-28T22:32:39.475Z,-27.6
2023-02-28T22:36:42.700Z,-27.3
2023-02-28T22:38:44.460Z,-27.4
2023-02-28T22:40:45.828Z,-27.2
2023-02-28T22:42:47.042Z,-27.4
2023-02-28T22:44:48.565Z,-27.5
2023-02-28T22:46:50.080Z,-27.2
2023-02-28T22:48:51.101Z,-27.5
2023-02-28T22:50:52.291Z,-27.7
2023-02-28T22:52:53.427Z,-27.4
2023-02-28T22:54:54.988Z,-27.6
2023-02-28T22:56:56.303Z,-27.5
2023-02-28T22:58:57.847Z,-27.5
2023-02-28T23:00:59.530Z,-27.5
2023-02-28T23:03:01.503Z,-27.3
2023-02-28T23:05:03.564Z,-27.5
2023-02-28T23:07:04.844Z,-27.2
2023-02-28T23:09:06.344Z,-27.4
2023-02-28T23:11:08.092Z,-27.3
2023-02-28T23:13:09.544Z,-27.3
2023-02-28T23:15:11.281Z,-27.4
2023-02-28T23:21:16.103Z,-27.3
2023-02-28T23:23:18.084Z,-27.2
2023-02-28T23:25:19.742Z,-27.3
2023-02-28T23:27:20.963Z,-27.4
2023-02-28T23:29:22.908Z,-27.4
2023-02-28T23:31:24.968Z,-27.5
2023-02-28T23:33:26.988Z,-27.3
2023-02-28T23:35:28.443Z,-27.5
2023-02-28T23:37:30.151Z,-27.2
2023-02-28T23:39:31.819Z,-27.2
2023-02-28T23:41:33.890Z,-27.5
2023-02-28T23:43:35.323Z,-27.2
2023-02-28T23:45:36.870Z,-27.3
2023-02-28T23:47:38.204Z,-27.2
2023-02-28T23:49:39.509Z,-27.3
2023-02-28T23:51:40.606Z,-27.3
2023-02-28T23:53:42.294Z,-27.2
2023-02-28T23:55:43.906Z,-27.4
2023-02-28T23:57:45.065Z,-27.3
2023-02-28T23:59:46.548Z,-27.2
